createdAt,value
2023-05-03T00:01:20.286Z,100386.36
2023-05-03T00:03:29.445Z,100390.41
2023-05-03T00:05:38.903Z,100398.19
2023-05-03T00:07:48.552Z,100407.60
2023-05-03T00:09:57.615Z,100405.86
2023-05-03T00:12:07.404Z,100408.83
2023-05-03T00:14:16.980Z,100412.25
2023-05-03T00:16:26.542Z,100419.59
2023-05-03T00:18:35.656Z,100418.00
2023-05-03T00:20:44.930Z,100419.16
2023-05-03T00:22:54.975Z,100423.02
2023-05-03T00:25:05.063Z,100422.10
2023-05-03T00:27:16.490Z,100432.32
2023-05-03T00:29:26.241Z,100436.58
2023-05-03T00:31:35.548Z,100443.96
2023-05-03T00:33:45.112Z,100448.66
2023-05-03T00:35:54.259Z,100449.65
2023-05-03T00:38:03.606Z,100450.04
2023-05-03T00:40:18.996Z,100463.04
2023-05-03T00:42:28.098Z,100470.48
2023-05-03T00:44:37.187Z,100470.00
2023-05-03T00:46:46.940Z,100473.92
2023-05-03T00:48:56.416Z,100484.71
2023-05-03T00:51:07.610Z,100484.97
2023-05-03T00:53:19.808Z,100490.60
2023-05-03T00:55:32.006Z,100496.34
2023-05-03T00:57:41.281Z,100497.29
2023-05-03T00:59:54.455Z,100497.62
2023-05-03T01:02:04.847Z,100495.33
2023-05-03T01:04:14.095Z,100497.66
2023-05-03T01:06:40.274Z,100503.98
2023-05-03T01:08:54.897Z,100510.49
2023-05-03T01:11:09.499Z,100513.67
2023-05-03T01:13:24.754Z,100511.87
2023-05-03T01:15:51.607Z,100508.38
2023-05-03T01:18:09.310Z,100512.81
2023-05-03T01:20:25.131Z,100515.73
2023-05-03T01:22:45.046Z,100514.17
2023-05-03T01:25:09.550Z,100517.59
2023-05-03T01:27:19.665Z,100524.44
2023-05-03T01:29:28.928Z,100523.82
2023-05-03T01:31:46.501Z,100527.95
2023-05-03T01:34:13.225Z,100529.02
2023-05-03T01:36:30.080Z,100536.53
2023-05-03T01:38:41.569Z,100543.84
2023-05-03T01:40:54.215Z,100545.02
2023-05-03T01:43:04.358Z,100542.73
2023-05-03T01:45:14.701Z,100545.43
2023-05-03T01:47:24.858Z,100551.90
2023-05-03T01:49:35.563Z,100553.06
2023-05-03T01:51:44.817Z,100549.85
2023-05-03T01:53:54.494Z,100553.62
2023-05-03T01:56:03.815Z,100555.73
2023-05-03T01:58:15.373Z,100561.20
2023-05-03T02:00:25.427Z,100557.18
2023-05-03T02:02:34.993Z,100557.55
2023-05-03T02:04:44.222Z,100561.44
2023-05-03T02:06:54.741Z,100562.67
2023-05-03T02:09:05.653Z,100560.20
2023-05-03T02:11:14.714Z,100559.51
2023-05-03T02:13:24.070Z,100561.09
2023-05-03T02:15:33.474Z,100559.13
2023-05-03T02:17:42.938Z,100564.79
2023-05-03T02:19:52.998Z,100561.70
2023-05-03T02:22:02.395Z,100561.84
2023-05-03T02:24:12.142Z,100564.50
2023-05-03T02:26:21.806Z,100565.97
2023-05-03T02:28:30.864Z,100576.09
2023-05-03T02:30:40.203Z,100582.64
2023-05-03T02:32:49.897Z,100582.91
2023-05-03T02:34:59.895Z,100584.95
2023-05-03T02:37:09.105Z,100581.16
2023-05-03T02:39:18.702Z,100590.48
2023-05-03T02:41:29.020Z,100595.88
2023-05-03T02:43:39.059Z,100596.05
2023-05-03T02:45:48.743Z,100600.60
2023-05-03T02:47:59.296Z,100601.38
2023-05-03T02:50:10.312Z,100608.14
2023-05-03T02:52:21.038Z,100616.55
2023-05-03T02:54:30.425Z,100619.99
2023-05-03T02:56:41.026Z,100628.91
2023-05-03T02:58:50.343Z,100631.61
2023-05-03T03:00:59.849Z,100633.66
2023-05-03T03:03:11.399Z,100636.19
2023-05-03T03:05:21.612Z,100638.40
2023-05-03T03:07:31.683Z,100646.05
2023-05-03T03:09:40.896Z,100650.23
2023-05-03T03:11:53.299Z,100652.17
2023-05-03T03:14:03.106Z,100650.35
2023-05-03T03:16:12.475Z,100650.80
2023-05-03T03:18:22.122Z,100651.48
2023-05-03T03:20:34.530Z,100656.72
2023-05-03T03:22:45.792Z,100662.52
2023-05-03T03:24:55.364Z,100665.41
2023-05-03T03:27:04.996Z,100669.31
2023-05-03T03:29:14.107Z,100673.95
2023-05-03T03:31:23.640Z,100680.60
2023-05-03T03:33:32.780Z,100683.11
2023-05-03T03:35:43.971Z,100687.72
2023-05-03T03:37:53.852Z,100693.77
2023-05-03T03:40:04.868Z,100697.94
2023-05-03T03:42:15.394Z,100705.10
2023-05-03T03:44:24.743Z,100711.63
2023-05-03T03:46:34.246Z,100710.73
2023-05-03T03:48:44.126Z,100716.66
2023-05-03T03:50:54.125Z,100712.45
2023-05-03T03:53:04.255Z,100716.65
2023-05-03T03:55:14.645Z,100718.73
2023-05-03T03:57:25.499Z,100720.66
2023-05-03T03:59:34.840Z,100725.88
2023-05-03T04:01:45.252Z,100729.68
2023-05-03T04:03:54.978Z,100731.36
2023-05-03T04:06:05.280Z,100737.86
2023-05-03T04:08:14.531Z,100743.08
2023-05-03T04:10:23.994Z,100745.24
2023-05-03T04:12:34.479Z,100746.42
2023-05-03T04:14:44.436Z,100749.59
2023-05-03T04:16:53.870Z,100752.54
2023-05-03T04:19:03.449Z,100750.96
2023-05-03T04:21:14.379Z,100754.20
2023-05-03T04:23:23.991Z,100754.14
2023-05-03T04:25:33.201Z,100758.58
2023-05-03T04:27:46.278Z,100763.49
2023-05-03T04:29:56.356Z,100768.95
2023-05-03T04:32:07.070Z,100769.34
2023-05-03T04:34:16.557Z,100771.46
2023-05-03T04:36:30.169Z,100776.28
2023-05-03T04:38:40.745Z,100777.40
2023-05-03T04:40:50.301Z,100778.02
2023-05-03T04:42:59.717Z,100782.55
2023-05-03T04:45:11.261Z,100782.64
2023-05-03T04:47:20.589Z,100781.77
2023-05-03T04:49:29.588Z,100777.49
2023-05-03T04:51:39.558Z,100776.07
2023-05-03T04:53:48.893Z,100781.30
2023-05-03T04:55:59.967Z,100785.17
2023-05-03T04:58:10.360Z,100783.64
2023-05-03T05:00:22.929Z,100783.65
2023-05-03T05:02:36.950Z,100783.41
2023-05-03T05:04:47.757Z,100784.20
2023-05-03T05:06:58.046Z,100787.67
2023-05-03T05:09:22.300Z,100788.02
2023-05-03T05:11:33.085Z,100788.95
2023-05-03T05:13:42.877Z,100790.99
2023-05-03T05:15:53.055Z,100789.52
2023-05-03T05:18:03.590Z,100787.45
2023-05-03T05:20:14.912Z,100779.48
2023-05-03T05:22:28.213Z,100776.17
2023-05-03T05:24:37.844Z,100767.49
2023-05-03T05:26:47.500Z,100756.90
2023-05-03T05:28:57.266Z,100752.50
2023-05-03T05:31:06.419Z,100744.28
2023-05-03T05:33:16.767Z,100738.45
2023-05-03T05:35:29.058Z,100731.02
2023-05-03T05:37:38.397Z,100724.08
2023-05-03T05:39:47.613Z,100715.46
2023-05-03T05:41:59.305Z,100708.61
2023-05-03T05:44:08.979Z,100701.19
2023-05-03T05:46:18.273Z,100695.75
2023-05-03T05:48:27.685Z,100689.73
2023-05-03T05:50:37.434Z,100693.38
2023-05-03T05:52:50.997Z,100695.10
2023-05-03T05:55:00.570Z,100703.88
2023-05-03T05:57:09.966Z,100709.14
2023-05-03T05:59:19.317Z,100713.87
2023-05-03T06:01:28.882Z,100720.86
2023-05-03T06:03:38.564Z,100725.25
2023-05-03T06:05:49.637Z,100732.73
2023-05-03T06:07:59.026Z,100728.87
2023-05-03T06:10:09.510Z,100728.46
2023-05-03T06:12:22.885Z,100726.08
2023-05-03T06:14:32.112Z,100724.66
2023-05-03T06:16:42.549Z,100726.45
2023-05-03T06:18:52.354Z,100728.35
2023-05-03T06:21:01.803Z,100727.05
2023-05-03T06:23:11.939Z,100729.27
2023-05-03T06:25:22.018Z,100734.30
2023-05-03T06:27:32.643Z,100740.83
2023-05-03T06:29:44.755Z,100737.81
2023-05-03T06:31:52.693Z,100736.77
2023-05-03T06:34:02.295Z,100739.20
2023-05-03T06:36:12.525Z,100743.99
2023-05-03T06:38:22.644Z,100744.05
2023-05-03T06:40:31.796Z,100745.07
2023-05-03T06:42:41.086Z,100744.82
2023-05-03T06:44:54.086Z,100754.52
2023-05-03T06:47:04.263Z,100758.83
2023-05-03T06:49:13.903Z,100757.23
2023-05-03T06:51:27.734Z,100761.77
2023-05-03T06:53:38.685Z,100766.48
2023-05-03T06:55:48.724Z,100771.67
2023-05-03T06:57:58.461Z,100773.16
2023-05-03T07:00:08.625Z,100777.50
2023-05-03T07:02:17.807Z,100776.23
2023-05-03T07:04:27.173Z,100781.34
2023-05-03T07:06:48.223Z,100788.91
2023-05-03T07:09:05.194Z,100790.18
2023-05-03T07:11:14.436Z,100790.36
2023-05-03T07:13:23.903Z,100791.09
2023-05-03T07:15:33.797Z,100788.02
2023-05-03T07:17:43.089Z,100788.58
2023-05-03T07:19:53.296Z,100791.73
2023-05-03T07:22:03.775Z,100796.77
2023-05-03T07:24:14.239Z,100801.02
2023-05-03T07:26:23.782Z,100805.91
2023-05-03T07:28:33.032Z,100809.91
2023-05-03T07:30:42.387Z,100815.17
2023-05-03T07:32:52.284Z,100817.92
2023-05-03T07:35:01.653Z,100819.64
2023-05-03T07:37:10.775Z,100820.27
2023-05-03T07:39:19.996Z,100825.47
2023-05-03T07:41:29.393Z,100828.87
2023-05-03T07:43:38.697Z,100829.96
2023-05-03T07:45:47.792Z,100829.11
2023-05-03T07:47:58.154Z,100834.95
2023-05-03T07:50:08.260Z,100834.23
2023-05-03T07:52:17.437Z,100837.02
2023-05-03T07:54:27.327Z,100835.36
2023-05-03T07:56:36.464Z,100837.48
2023-05-03T07:58:48.674Z,100840.79
2023-05-03T08:01:00.592Z,100839.06
2023-05-03T08:03:10.133Z,100835.58
2023-05-03T08:05:22.819Z,100835.98
2023-05-03T08:07:32.269Z,100827.41
2023-05-03T08:09:41.915Z,100822.45
2023-05-03T08:11:51.127Z,100821.57
2023-05-03T08:14:01.120Z,100820.63
2023-05-03T08:16:11.160Z,100822.98
2023-05-03T08:18:22.985Z,100820.46
2023-05-03T08:20:37.038Z,100816.75
2023-05-03T08:22:47.077Z,100815.48
2023-05-03T08:24:56.943Z,100808.23
2023-05-03T08:27:07.335Z,100813.39
2023-05-03T08:29:16.493Z,100814.89
2023-05-03T08:31:26.006Z,100813.23
2023-05-03T08:33:35.291Z,100819.92
2023-05-03T08:35:44.521Z,100824.41
2023-05-03T08:37:56.789Z,100828.11
2023-05-03T08:40:12.438Z,100829.77
2023-05-03T08:42:23.332Z,100829.53
2023-05-03T08:44:33.926Z,100826.52
2023-05-03T08:46:44.790Z,100831.77
2023-05-03T08:48:55.465Z,100830.49
2023-05-03T08:51:08.657Z,100833.41
2023-05-03T08:53:17.784Z,100834.70
2023-05-03T08:55:27.549Z,100831.37
2023-05-03T08:57:37.611Z,100834.41
2023-05-03T08:59:54.815Z,100832.16
2023-05-03T09:02:04.064Z,100832.06
2023-05-03T09:04:14.502Z,100825.69
2023-05-03T09:06:29.842Z,100825.06
2023-05-03T09:08:46.355Z,100825.05
2023-05-03T09:10:55.745Z,100826.45
2023-05-03T09:13:05.467Z,100824.46
2023-05-03T09:15:27.567Z,100823.34
2023-05-03T09:17:34.710Z,100819.73
2023-05-03T09:19:55.608Z,100825.77
2023-05-03T09:22:10.833Z,100821.46
2023-05-03T09:24:21.331Z,100820.58
2023-05-03T09:26:37.315Z,100819.52
2023-05-03T09:28:47.089Z,100811.30
2023-05-03T09:31:08.305Z,100805.45
2023-05-03T09:33:21.750Z,100802.44
2023-05-03T09:35:32.648Z,100802.04
2023-05-03T09:37:44.777Z,100793.61
2023-05-03T09:40:10.639Z,100787.48
2023-05-03T09:42:20.948Z,100784.66
2023-05-03T09:44:44.673Z,100786.06
2023-05-03T09:47:10.211Z,100786.98
2023-05-03T09:49:19.562Z,100778.63
2023-05-03T09:51:29.792Z,100782.63
2023-05-03T09:53:40.011Z,100779.07
2023-05-03T09:55:51.162Z,100781.02
2023-05-03T09:58:00.920Z,100777.91
2023-05-03T10:00:14.041Z,100776.01
2023-05-03T10:18:05.603Z,100769.82
2023-05-03T10:20:41.130Z,100776.75
2023-05-03T10:23:14.357Z,100773.16
2023-05-03T10:26:03.324Z,100774.67
2023-05-03T10:28:34.796Z,100771.60
2023-05-03T10:31:04.562Z,100768.17
2023-05-03T10:33:36.769Z,100763.27
2023-05-03T10:36:10.990Z,100757.55
2023-05-03T10:38:41.087Z,100753.49
2023-05-03T10:41:10.443Z,100753.31
2023-05-03T10:43:49.368Z,100753.66
2023-05-03T10:46:39.401Z,100744.28
2023-05-03T10:49:22.498Z,100736.41
2023-05-03T10:51:43.578Z,100732.77
2023-05-03T10:54:13.763Z,100730.50
2023-05-03T10:56:27.288Z,100725.85
2023-05-03T10:58:48.554Z,100725.96
2023-05-03T11:01:19.460Z,100724.98
2023-05-03T11:03:54.150Z,100723.59
2023-05-03T11:06:28.556Z,100728.58
2023-05-03T11:08:53.749Z,100724.29
2023-05-03T11:11:15.852Z,100719.38
2023-05-03T11:13:36.627Z,100711.80
2023-05-03T11:16:07.260Z,100707.88
2023-05-03T11:18:20.098Z,100705.96
2023-05-03T11:20:40.890Z,100702.44
2023-05-03T11:23:00.079Z,100701.02
2023-05-03T11:25:14.662Z,100696.88
2023-05-03T11:27:47.995Z,100696.42
2023-05-03T11:30:18.560Z,100701.92
2023-05-03T11:32:30.762Z,100711.94
2023-05-03T11:35:03.148Z,100708.98
2023-05-03T11:37:14.018Z,100710.19
2023-05-03T11:39:43.489Z,100707.80
2023-05-03T11:42:08.750Z,100704.36
2023-05-03T11:44:30.719Z,100699.23
2023-05-03T11:47:00.442Z,100699.60
2023-05-03T11:49:30.035Z,100701.11
2023-05-03T11:51:59.816Z,100697.39
2023-05-03T11:54:25.383Z,100695.38
2023-05-03T11:56:47.853Z,100700.54
2023-05-03T11:59:17.488Z,100702.23
2023-05-03T12:01:38.106Z,100702.05
2023-05-03T12:03:49.888Z,100701.40
2023-05-03T12:06:04.407Z,100696.02
2023-05-03T12:08:36.896Z,100689.21
2023-05-03T12:10:59.593Z,100692.61
2023-05-03T12:13:33.526Z,100688.41
2023-05-03T12:18:27.708Z,100688.91
2023-05-03T12:23:34.361Z,100686.26
2023-05-03T12:26:05.436Z,100687.80
2023-05-03T12:28:25.153Z,100683.92
2023-05-03T12:30:56.590Z,100679.58
2023-05-03T12:33:28.465Z,100680.08
2023-05-03T12:35:59.331Z,100679.84
2023-05-03T12:38:10.188Z,100676.86
2023-05-03T12:40:41.238Z,100673.41
2023-05-03T12:43:11.372Z,100674.20
2023-05-03T12:45:28.288Z,100672.17
2023-05-03T12:47:48.413Z,100669.19
2023-05-03T12:50:12.830Z,100664.01
2023-05-03T12:55:00.435Z,100660.71
2023-05-03T12:57:37.121Z,100657.36
2023-05-03T12:59:56.520Z,100652.02
2023-05-03T13:06:58.848Z,100631.98
2023-05-03T13:09:38.605Z,100628.74
2023-05-03T13:12:20.815Z,100630.75
2023-05-03T13:14:33.861Z,100629.01
2023-05-03T13:16:54.391Z,100625.08
2023-05-03T13:19:23.875Z,100630.73
2023-05-03T13:21:53.149Z,100635.27
2023-05-03T13:24:22.702Z,100635.98
2023-05-03T13:26:52.234Z,100636.13
2023-05-03T13:29:22.501Z,100634.77
2023-05-03T13:31:42.887Z,100630.27
2023-05-03T13:34:02.202Z,100629.90
2023-05-03T13:36:23.109Z,100631.45
2023-05-03T13:38:45.318Z,100630.67
2023-05-03T13:41:14.920Z,100624.58
2023-05-03T13:43:29.907Z,100629.11
2023-05-03T13:45:53.207Z,100632.23
2023-05-03T13:48:18.445Z,100631.95
2023-05-03T13:50:34.315Z,100632.58
2023-05-03T13:52:45.048Z,100634.84
2023-05-03T13:55:04.832Z,100641.68
2023-05-03T13:57:34.232Z,100636.52
2023-05-03T14:00:03.778Z,100640.38
2023-05-03T14:02:33.350Z,100636.73
2023-05-03T14:04:46.842Z,100637.95
2023-05-03T14:07:16.770Z,100634.89
2023-05-03T14:09:46.178Z,100637.00
2023-05-03T14:11:57.381Z,100640.20
2023-05-03T14:14:30.161Z,100641.42
2023-05-03T14:16:59.639Z,100640.27
2023-05-03T14:19:12.760Z,100637.35
2023-05-03T14:21:33.868Z,100634.03
2023-05-03T14:23:43.360Z,100633.27
2023-05-03T14:26:12.939Z,100634.20
2023-05-03T14:28:42.483Z,100635.67
2023-05-03T14:30:55.202Z,100629.91
2023-05-03T14:33:16.467Z,100630.73
2023-05-03T14:35:35.866Z,100628.35
2023-05-03T14:38:06.542Z,100631.55
2023-05-03T14:40:25.965Z,100632.29
2023-05-03T14:42:55.260Z,100630.63
2023-05-03T14:45:06.150Z,100624.24
2023-05-03T14:47:27.200Z,100622.20
2023-05-03T14:49:41.205Z,100620.80
2023-05-03T14:52:10.683Z,100623.92
2023-05-03T14:54:24.558Z,100625.39
2023-05-03T14:56:53.956Z,100625.27
2023-05-03T14:59:23.326Z,100627.59
2023-05-03T15:01:53.936Z,100623.55
2023-05-03T15:04:24.108Z,100618.65
2023-05-03T15:06:43.589Z,100611.17
2023-05-03T15:09:13.683Z,100607.48
2023-05-03T15:11:43.269Z,100604.41
2023-05-03T15:14:13.081Z,100599.06
2023-05-03T15:16:43.034Z,100602.80
2023-05-03T15:19:07.577Z,100605.90
2023-05-03T15:21:49.694Z,100601.58
2023-05-03T15:24:18.098Z,100605.43
2023-05-03T15:26:48.120Z,100603.05
2023-05-03T15:29:17.711Z,100599.89
2023-05-03T15:31:47.902Z,100591.84
2023-05-03T15:33:57.599Z,100594.04
2023-05-03T15:36:17.870Z,100598.66
2023-05-03T15:38:27.294Z,100600.95
2023-05-03T15:40:47.264Z,100601.71
2023-05-03T15:43:06.812Z,100602.80
2023-05-03T15:45:37.025Z,100601.73
2023-05-03T15:47:58.446Z,100601.45
2023-05-03T15:50:18.032Z,100600.39
2023-05-03T15:52:47.749Z,100593.21
2023-05-03T15:55:07.615Z,100593.34
2023-05-03T15:57:27.474Z,100591.38
2023-05-03T15:59:56.843Z,100587.66
2023-05-03T16:02:15.986Z,100581.56
2023-05-03T16:04:45.722Z,100576.00
2023-05-03T16:07:08.025Z,100570.17
2023-05-03T16:09:37.756Z,100567.82
2023-05-03T16:12:07.735Z,100557.20
2023-05-03T16:14:26.497Z,100554.70
2023-05-03T16:16:56.292Z,100553.51
2023-05-03T16:19:15.629Z,100544.52
2023-05-03T16:21:45.693Z,100538.19
2023-05-03T16:24:15.266Z,100532.42
2023-05-03T16:26:35.075Z,100534.38
2023-05-03T16:28:54.580Z,100532.14
2023-05-03T16:31:23.862Z,100529.01
2023-05-03T16:33:53.239Z,100527.16
2023-05-03T16:36:02.915Z,100522.52
2023-05-03T16:38:16.302Z,100523.11
2023-05-03T16:40:46.493Z,100516.66
2023-05-03T16:43:04.103Z,100510.05
2023-05-03T16:45:33.567Z,100509.09
2023-05-03T16:47:43.123Z,100508.38
2023-05-03T16:50:14.204Z,100503.41
2023-05-03T16:52:28.068Z,100501.55
2023-05-03T16:54:55.987Z,100499.55
2023-05-03T16:57:25.480Z,100496.89
2023-05-03T16:59:46.364Z,100495.34
2023-05-03T17:02:06.834Z,100497.15
2023-05-03T17:04:16.841Z,100492.78
2023-05-03T17:06:37.173Z,100490.59
2023-05-03T17:08:49.582Z,100490.88
2023-05-03T17:11:13.403Z,100492.94
2023-05-03T17:13:34.811Z,100490.64
2023-05-03T17:15:53.594Z,100486.09
2023-05-03T17:18:23.462Z,100486.13
2023-05-03T17:20:43.371Z,100489.48
2023-05-03T17:23:13.089Z,100485.47
2023-05-03T17:25:26.192Z,100484.10
2023-05-03T17:27:47.482Z,100473.23
2023-05-03T17:30:20.811Z,100465.81
2023-05-03T17:32:34.033Z,100469.08
2023-05-03T17:34:52.561Z,100457.06
2023-05-03T17:37:14.669Z,100451.13
2023-05-03T17:39:30.046Z,100447.30
2023-05-03T17:41:41.327Z,100444.09
2023-05-03T17:44:11.089Z,100450.96
2023-05-03T17:46:41.017Z,100448.20
2023-05-03T17:49:01.487Z,100447.16
2023-05-03T17:51:12.916Z,100441.40
2023-05-03T17:53:41.093Z,100435.00
2023-05-03T17:56:00.990Z,100433.66
2023-05-03T17:58:30.622Z,100435.06
2023-05-03T18:00:58.922Z,100439.56
2023-05-03T18:03:28.432Z,100439.89
2023-05-03T18:05:49.550Z,100436.55
2023-05-03T18:08:12.534Z,100423.63
2023-05-03T18:10:43.616Z,100416.93
2023-05-03T18:13:04.806Z,100415.09
2023-05-03T18:15:28.999Z,100415.21
2023-05-03T18:17:51.661Z,100414.75
2023-05-03T18:20:21.489Z,100416.48
2023-05-03T18:22:50.346Z,100416.88
2023-05-03T18:25:02.429Z,100416.12
2023-05-03T18:27:22.767Z,100410.95
2023-05-03T18:29:43.465Z,100410.61
2023-05-03T18:32:12.992Z,100410.19
2023-05-03T18:34:42.441Z,100412.00
2023-05-03T18:37:13.059Z,100410.80
2023-05-03T18:39:32.587Z,100403.16
2023-05-03T18:41:42.240Z,100397.72
2023-05-03T18:44:08.927Z,100396.48
2023-05-03T18:46:38.918Z,100398.80
2023-05-03T18:49:00.187Z,100388.14
2023-05-03T18:51:31.755Z,100388.82
2023-05-03T18:54:00.655Z,100390.30
2023-05-03T18:56:31.762Z,100386.09
2023-05-03T18:58:52.565Z,100383.59
2023-05-03T19:01:22.171Z,100388.23
2023-05-03T19:03:51.910Z,100386.91
2023-05-03T19:06:04.496Z,100381.30
2023-05-03T19:08:14.068Z,100381.12
2023-05-03T19:10:44.490Z,100380.48
2023-05-03T19:13:07.678Z,100381.21
2023-05-03T19:15:37.104Z,100369.92
2023-05-03T19:17:47.859Z,100362.17
2023-05-03T19:20:17.948Z,100355.29
2023-05-03T19:22:47.981Z,100350.39
2023-05-03T19:25:17.602Z,100342.83
2023-05-03T19:27:47.261Z,100338.59
2023-05-03T19:29:59.953Z,100338.64
2023-05-03T19:32:12.410Z,100336.08
2023-05-03T19:34:25.069Z,100323.97
2023-05-03T19:36:37.396Z,100320.70
2023-05-03T19:39:11.747Z,100326.48
2023-05-03T19:41:25.578Z,100329.73
2023-05-03T19:43:57.704Z,100328.63
2023-05-03T19:46:13.000Z,100325.89
2023-05-03T19:48:35.578Z,100322.25
2023-05-03T19:50:50.739Z,100320.45
2023-05-03T19:53:20.445Z,100318.84
2023-05-03T19:55:59.573Z,100317.98
2023-05-03T19:58:20.000Z,100315.41
2023-05-03T20:00:30.145Z,100315.02
2023-05-03T20:02:50.826Z,100308.61
2023-05-03T20:05:12.026Z,100308.52
2023-05-03T20:07:31.475Z,100307.21
2023-05-03T20:09:50.697Z,100310.19
2023-05-03T20:12:03.093Z,100309.67
2023-05-03T20:14:32.718Z,100302.75
2023-05-03T20:16:57.110Z,100306.43
2023-05-03T20:19:09.551Z,100303.02
2023-05-03T20:21:32.786Z,100296.99
2023-05-03T20:23:54.948Z,100294.36
2023-05-03T20:26:15.347Z,100292.29
2023-05-03T20:28:27.990Z,100288.50
2023-05-03T20:30:37.339Z,100282.64
2023-05-03T20:32:47.804Z,100282.95
2023-05-03T20:35:03.074Z,100276.30
2023-05-03T20:37:32.623Z,100269.75
2023-05-03T20:39:42.187Z,100271.05
2023-05-03T20:41:55.076Z,100269.26
2023-05-03T20:44:14.156Z,100262.82
2023-05-03T20:46:23.695Z,100261.42
2023-05-03T20:48:53.367Z,100257.71
2023-05-03T20:51:24.422Z,100262.33
2023-05-03T20:53:34.431Z,100262.96
2023-05-03T20:55:43.909Z,100258.08
2023-05-03T20:57:53.541Z,100261.91
2023-05-03T21:00:23.012Z,100257.46
2023-05-03T21:02:54.830Z,100257.23
2023-05-03T21:05:08.197Z,100260.90
2023-05-03T21:07:28.655Z,100257.56
2023-05-03T21:09:42.045Z,100257.71
2023-05-03T21:11:51.488Z,100260.73
2023-05-03T21:14:04.042Z,100260.69
2023-05-03T21:16:13.571Z,100259.04
2023-05-03T21:18:25.041Z,100259.38
2023-05-03T21:20:44.705Z,100247.60
2023-05-03T21:22:57.116Z,100245.09
2023-05-03T21:25:07.038Z,100242.60
2023-05-03T21:27:19.802Z,100241.92
2023-05-03T21:29:43.173Z,100235.93
2023-05-03T21:32:12.388Z,100232.56
2023-05-03T21:34:25.805Z,100226.92
2023-05-03T21:36:55.503Z,100220.02
2023-05-03T21:39:05.392Z,100218.48
2023-05-03T21:41:35.148Z,100219.86
2023-05-03T21:44:04.356Z,100222.17
2023-05-03T21:46:24.918Z,100223.96
2023-05-03T21:48:34.824Z,100222.98
2023-05-03T21:51:04.105Z,100214.06
2023-05-03T21:53:35.808Z,100209.34
2023-05-03T21:56:05.400Z,100206.36
2023-05-03T21:58:18.148Z,100205.34
2023-05-03T22:00:36.454Z,100207.35
2023-05-03T22:02:56.573Z,100205.20
2023-05-03T22:05:06.198Z,100208.70
2023-05-03T22:07:39.055Z,100203.63
2023-05-03T22:09:52.050Z,100205.70
2023-05-03T22:12:05.961Z,100202.59
2023-05-03T22:14:21.606Z,100199.27
2023-05-03T22:16:30.950Z,100197.55
2023-05-03T22:18:40.222Z,100193.71
2023-05-03T22:20:49.333Z,100188.76
2023-05-03T22:22:59.078Z,100182.60
2023-05-03T22:25:09.576Z,100179.70
2023-05-03T22:27:18.734Z,100178.05
2023-05-03T22:29:28.089Z,100178.13
2023-05-03T22:31:37.202Z,100179.08
2023-05-03T22:33:47.633Z,100184.15
2023-05-03T22:35:57.126Z,100184.72
2023-05-03T22:38:06.718Z,100182.20
2023-05-03T22:40:16.237Z,100185.02
2023-05-03T22:42:25.788Z,100186.95
2023-05-03T22:44:34.977Z,100195.63
2023-05-03T22:46:44.150Z,100197.50
2023-05-03T22:48:53.524Z,100199.39
2023-05-03T22:51:02.715Z,100200.36
2023-05-03T22:53:11.879Z,100200.19
2023-05-03T22:55:21.896Z,100205.20
2023-05-03T22:57:31.139Z,100213.00
2023-05-03T22:59:40.312Z,100209.13
2023-05-03T23:01:50.019Z,100212.34
2023-05-03T23:04:00.556Z,100211.55
2023-05-03T23:06:10.242Z,100215.39
2023-05-03T23:08:19.495Z,100213.09
2023-05-03T23:10:28.892Z,100214.90
2023-05-03T23:12:38.303Z,100215.10
2023-05-03T23:14:47.720Z,100212.50
2023-05-03T23:16:56.964Z,100207.59
2023-05-03T23:19:06.373Z,100205.48
2023-05-03T23:21:15.554Z,100202.54
2023-05-03T23:23:25.277Z,100204.42
2023-05-03T23:25:35.269Z,100210.64
2023-05-03T23:27:44.220Z,100203.74
2023-05-03T23:29:54.339Z,100205.93
2023-05-03T23:32:04.299Z,100210.53
2023-05-03T23:34:14.141Z,100211.38
2023-05-03T23:36:26.370Z,100210.90
2023-05-03T23:38:38.037Z,100209.81
2023-05-03T23:40:47.184Z,100208.06
2023-05-03T23:42:56.590Z,100209.98
2023-05-03T23:45:05.944Z,100212.63
2023-05-03T23:47:15.441Z,100213.00
2023-05-03T23:49:24.924Z,100216.50
2023-05-03T23:51:34.916Z,100206.98
2023-05-03T23:53:44.240Z,100207.50
2023-05-03T23:55:54.289Z,100208.52
2023-05-03T23:58:03.492Z,100206.33
